Applegate, Michigan
Current Conditions -  °F | °C
As of 8:00 AM on Wednesday 22 Oct 2014 (Local Time) from CYZR Reporting Station
Overcast Overcast  
Wind Chill:   Ceiling: 1900
Heat Index:   Visibility: 9mi
Dew Point:   Wind: 13mph
Humidity: 76%   Direction: 30°NNE
Pressure: 30.29"   Gusts: NA
Location:  43.36°N, 82.64°W
Report Text: CYZR 221200Z AUTO 03011KT 9SM OVC019 07/03 A3029 RMK SLP262
Loading
Personal Weather Stations






























Interactive Weather Map
Tropical Storm Tracking
New forecast layout! Learn more

10-Day Weather Forecast

Advertisements
Track Severe Weather on mobile